createdAt,value
2018-06-08T00:02:08.416Z,16.80
2018-06-08T00:04:36.603Z,16.80
2018-06-08T00:07:04.799Z,16.80
2018-06-08T00:09:32.975Z,16.80
2018-06-08T00:12:01.164Z,16.80
2018-06-08T00:14:29.343Z,16.80
2018-06-08T00:16:57.516Z,16.90
2018-06-08T00:19:25.704Z,16.90
2018-06-08T00:21:53.884Z,16.90
2018-06-08T00:24:22.072Z,16.90
2018-06-08T00:26:50.323Z,16.90
2018-06-08T00:31:46.462Z,17.00
2018-06-08T00:34:14.643Z,17.00
2018-06-08T00:39:10.769Z,17.00
2018-06-08T00:41:38.944Z,17.00
2018-06-08T00:44:07.283Z,17.00
2018-06-08T00:46:35.452Z,17.00
2018-06-08T00:49:03.648Z,17.00
2018-06-08T00:51:31.820Z,16.90
2018-06-08T00:54:00.004Z,17.00
2018-06-08T00:56:39.676Z,17.00
2018-06-08T01:01:35.791Z,16.90
2018-06-08T01:04:04.003Z,16.90
2018-06-08T01:06:32.172Z,16.90
2018-06-08T01:09:00.356Z,16.80
2018-06-08T01:11:28.519Z,16.90
2018-06-08T01:18:52.599Z,16.90
2018-06-08T01:21:20.777Z,16.90
2018-06-08T01:23:48.956Z,16.90
2018-06-08T01:26:17.124Z,16.90
2018-06-08T01:28:45.324Z,16.90
2018-06-08T01:31:13.534Z,16.80
2018-06-08T01:33:41.839Z,16.80
2018-06-08T01:36:10.012Z,16.80
2018-06-08T01:38:38.195Z,16.80
2018-06-08T01:41:06.363Z,16.80
2018-06-08T01:43:34.572Z,16.80
2018-06-08T01:46:02.776Z,16.80
2018-06-08T01:48:31.047Z,16.80
2018-06-08T01:50:59.249Z,16.80
2018-06-08T01:53:27.431Z,16.80
2018-06-08T01:55:55.616Z,16.80
2018-06-08T01:58:23.803Z,16.80
2018-06-08T02:03:19.912Z,16.80
2018-06-08T02:05:48.108Z,16.80
2018-06-08T02:08:16.288Z,16.80
2018-06-08T02:13:12.423Z,16.80
2018-06-08T02:15:40.600Z,16.80
2018-06-08T02:18:08.784Z,16.80
2018-06-08T02:20:36.967Z,16.80
2018-06-08T02:23:05.172Z,16.80
2018-06-08T02:25:33.346Z,16.90
2018-06-08T02:28:01.520Z,16.80
2018-06-08T02:30:29.696Z,16.80
2018-06-08T02:32:57.904Z,16.90
2018-06-08T02:35:26.077Z,16.80
2018-06-08T02:37:54.328Z,16.90
2018-06-08T02:40:22.512Z,16.80
2018-06-08T02:42:50.777Z,16.90
2018-06-08T02:45:18.958Z,16.90
2018-06-08T02:47:47.128Z,16.90
2018-06-08T02:50:15.307Z,16.80
2018-06-08T02:52:43.483Z,16.80
2018-06-08T02:55:11.673Z,16.80
2018-06-08T02:57:39.856Z,16.80
2018-06-08T03:00:08.285Z,16.80
2018-06-08T03:02:36.460Z,16.90
2018-06-08T03:05:04.684Z,16.80
2018-06-08T03:07:32.862Z,16.90
2018-06-08T03:10:01.078Z,16.90
2018-06-08T03:12:29.258Z,16.90
2018-06-08T03:14:57.452Z,17.00
2018-06-08T03:17:25.636Z,17.00
2018-06-08T03:19:54.825Z,16.90
2018-06-08T03:22:22.996Z,17.00
2018-06-08T03:24:51.228Z,17.00
2018-06-08T03:27:19.427Z,17.00
2018-06-08T03:29:47.655Z,17.00
2018-06-08T03:32:22.552Z,17.10
2018-06-08T03:34:50.740Z,17.10
2018-06-08T03:37:18.920Z,17.10
2018-06-08T03:39:47.116Z,17.00
2018-06-08T03:42:15.300Z,17.10
2018-06-08T03:44:43.476Z,17.10
2018-06-08T03:47:11.672Z,17.10
2018-06-08T03:49:39.856Z,17.10
2018-06-08T03:52:09.139Z,17.10
2018-06-08T03:54:37.344Z,17.00
2018-06-08T03:57:05.548Z,17.10
2018-06-08T03:59:33.724Z,17.10
2018-06-08T04:02:01.913Z,17.20
2018-06-08T04:04:30.088Z,17.20
2018-06-08T04:06:58.311Z,17.10
2018-06-08T04:09:26.496Z,17.20
2018-06-08T04:11:54.688Z,17.20
2018-06-08T04:14:22.899Z,17.20
2018-06-08T04:16:51.095Z,17.10
2018-06-08T04:19:19.290Z,17.10
2018-06-08T04:21:47.472Z,17.10
2018-06-08T04:24:15.700Z,17.10
2018-06-08T04:26:43.957Z,17.10
2018-06-08T04:29:12.120Z,17.10
2018-06-08T04:31:41.317Z,17.20
2018-06-08T04:34:09.572Z,17.30
2018-06-08T04:36:37.760Z,17.20
2018-06-08T04:39:07.649Z,17.20
2018-06-08T04:41:35.833Z,17.20
2018-06-08T04:44:04.049Z,17.20
2018-06-08T04:46:32.211Z,17.10
2018-06-08T04:49:00.413Z,17.10
2018-06-08T04:51:28.636Z,17.30
2018-06-08T04:56:24.747Z,17.30
2018-06-08T04:58:52.956Z,17.20
2018-06-08T05:01:21.161Z,17.20
2018-06-08T05:03:49.364Z,17.20
2018-06-08T05:06:17.559Z,17.20
2018-06-08T05:08:45.748Z,17.20
2018-06-08T05:11:13.920Z,17.20
2018-06-08T05:13:42.099Z,17.20
2018-06-08T05:16:10.276Z,17.30
2018-06-08T05:18:38.439Z,17.40
2018-06-08T05:21:06.659Z,17.40
2018-06-08T05:23:34.839Z,17.50
2018-06-08T05:26:03.028Z,17.50
2018-06-08T05:28:31.199Z,17.50
2018-06-08T05:30:59.403Z,17.50
2018-06-08T05:33:27.584Z,17.50
2018-06-08T05:35:56.364Z,17.50
2018-06-08T05:40:52.695Z,17.40
2018-06-08T05:43:20.899Z,17.50
2018-06-08T05:48:17.093Z,17.60
2018-06-08T05:50:45.248Z,17.70
2018-06-08T05:53:13.454Z,17.70
2018-06-08T05:55:41.628Z,17.80
2018-06-08T05:58:09.929Z,17.70
2018-06-08T06:03:06.065Z,17.80
2018-06-08T06:05:34.235Z,17.80
2018-06-08T06:08:02.432Z,17.80
2018-06-08T06:10:30.600Z,17.90
2018-06-08T06:12:58.793Z,17.90
2018-06-08T06:15:26.987Z,17.80
2018-06-08T06:17:55.255Z,17.90
2018-06-08T06:20:23.428Z,17.90
2018-06-08T06:22:51.639Z,18.00
2018-06-08T06:25:19.820Z,18.00
2018-06-08T06:27:48.004Z,18.10
2018-06-08T06:30:16.238Z,18.10
2018-06-08T06:32:44.408Z,18.10
2018-06-08T06:35:12.603Z,18.10
2018-06-08T06:37:40.789Z,18.00
2018-06-08T06:40:09.020Z,18.00
2018-06-08T06:42:37.207Z,18.00
2018-06-08T06:45:05.988Z,18.00
2018-06-08T06:47:34.179Z,18.10
2018-06-08T06:50:02.396Z,18.00
2018-06-08T06:52:30.589Z,18.10
2018-06-08T06:54:58.762Z,18.20
2018-06-08T06:57:26.928Z,18.30
2018-06-08T06:59:55.124Z,18.40
2018-06-08T07:02:23.334Z,18.30
2018-06-08T07:04:51.516Z,18.30
2018-06-08T07:07:19.700Z,18.40
2018-06-08T07:09:47.883Z,18.50
2018-06-08T07:14:44.058Z,18.60
2018-06-08T07:17:12.251Z,18.70
2018-06-08T07:19:40.448Z,18.80
2018-06-08T07:22:08.651Z,18.90
2018-06-08T07:27:04.844Z,19.00
2018-06-08T07:29:33.016Z,18.90
2018-06-08T07:32:01.214Z,19.00
2018-06-08T07:34:29.372Z,19.10
2018-06-08T07:36:58.175Z,19.20
2018-06-08T07:39:26.359Z,19.30
2018-06-08T07:41:54.545Z,19.30
2018-06-08T07:46:50.725Z,19.50
2018-06-08T07:49:18.920Z,19.60
2018-06-08T07:51:47.169Z,19.70
2018-06-08T07:54:15.354Z,19.70
2018-06-08T07:56:43.544Z,19.80
2018-06-08T07:59:11.849Z,19.80
2018-06-08T08:01:40.088Z,19.70
2018-06-08T08:04:08.293Z,19.80
2018-06-08T08:06:36.518Z,19.80
2018-06-08T08:09:08.169Z,19.80
2018-06-08T08:11:36.297Z,19.80
2018-06-08T08:14:05.217Z,19.90
2018-06-08T08:16:33.416Z,19.90
2018-06-08T08:19:01.613Z,19.80
2018-06-08T08:21:29.792Z,19.90
2018-06-08T08:23:58.664Z,20.00
2018-06-08T08:26:26.833Z,20.10
2018-06-08T08:28:55.021Z,20.20
2018-06-08T08:31:23.207Z,20.20
2018-06-08T08:33:51.408Z,20.20
2018-06-08T08:38:47.516Z,20.40
2018-06-08T08:41:15.708Z,20.60
2018-06-08T08:43:43.896Z,20.60
2018-06-08T08:48:40.200Z,20.70
2018-06-08T08:51:08.385Z,20.90
2018-06-08T08:53:36.564Z,20.90
2018-06-08T08:56:04.752Z,20.90
2018-06-08T08:58:32.948Z,21.00
2018-06-08T09:01:01.125Z,20.80
2018-06-08T09:03:29.317Z,21.00
2018-06-08T09:05:58.148Z,21.00
2018-06-08T09:08:26.323Z,21.00
2018-06-08T09:10:54.561Z,21.00
2018-06-08T09:13:22.760Z,21.20
2018-06-08T09:15:50.948Z,21.30
2018-06-08T09:18:19.143Z,21.40
2018-06-08T09:20:47.344Z,21.30
2018-06-08T09:23:15.507Z,21.40
2018-06-08T09:25:43.672Z,21.30
2018-06-08T09:28:11.851Z,21.30
2018-06-08T09:30:40.021Z,21.40
2018-06-08T09:33:08.270Z,21.40
2018-06-08T09:35:36.402Z,21.40
2018-06-08T09:38:04.572Z,21.60
2018-06-08T09:40:32.781Z,21.50
2018-06-08T09:43:00.956Z,21.60
2018-06-08T09:45:29.132Z,21.60
2018-06-08T09:47:57.307Z,21.60
2018-06-08T09:50:25.536Z,21.60
2018-06-08T09:52:53.747Z,21.50
2018-06-08T09:55:21.929Z,21.70
2018-06-08T09:57:50.093Z,21.60
2018-06-08T10:00:23.722Z,21.70
2018-06-08T10:05:19.933Z,21.70
2018-06-08T10:07:48.097Z,21.90
2018-06-08T10:10:16.256Z,22.10
2018-06-08T10:12:44.448Z,22.20
2018-06-08T10:15:12.641Z,22.30
2018-06-08T10:17:40.825Z,22.40
2018-06-08T10:20:09.026Z,22.40
2018-06-08T10:22:37.273Z,22.30
2018-06-08T10:25:05.457Z,22.70
2018-06-08T10:30:01.626Z,23.00
2018-06-08T10:32:29.816Z,23.10
2018-06-08T10:34:58.009Z,23.10
2018-06-08T10:37:26.188Z,23.10
2018-06-08T10:39:54.373Z,23.20
2018-06-08T10:42:22.545Z,23.40
2018-06-08T10:44:50.744Z,23.60
2018-06-08T10:49:46.858Z,23.70
2018-06-08T10:52:15.074Z,23.80
2018-06-08T10:54:43.275Z,23.60
2018-06-08T10:57:13.690Z,23.60
2018-06-08T10:59:42.633Z,23.60
2018-06-08T11:02:11.077Z,23.70
2018-06-08T11:04:39.289Z,23.70
2018-06-08T11:07:07.479Z,23.60
2018-06-08T11:12:03.608Z,24.10
2018-06-08T11:14:31.812Z,24.10
2018-06-08T11:16:59.976Z,24.00
2018-06-08T11:24:24.060Z,24.10
2018-06-08T11:26:52.287Z,24.00
2018-06-08T11:29:20.450Z,24.00
2018-06-08T11:31:48.620Z,24.00
2018-06-08T11:34:16.813Z,23.80
2018-06-08T11:36:44.980Z,23.70
2018-06-08T11:39:13.212Z,24.20
2018-06-08T11:41:41.352Z,24.50
2018-06-08T11:44:09.561Z,24.60
2018-06-08T11:46:37.717Z,24.70
2018-06-08T11:49:06.051Z,25.00
2018-06-08T11:51:34.229Z,25.10
2018-06-08T11:54:02.401Z,25.10
2018-06-08T11:56:30.592Z,24.80
2018-06-08T11:58:58.804Z,24.70
2018-06-08T12:03:54.963Z,25.10
2018-06-08T12:06:23.132Z,25.00
2018-06-08T12:11:19.268Z,25.70
2018-06-08T12:16:15.377Z,25.60
2018-06-08T12:18:43.556Z,25.70
2018-06-08T12:21:11.744Z,25.90
2018-06-08T12:23:39.943Z,26.00
2018-06-08T12:26:08.148Z,26.00
2018-06-08T12:28:36.306Z,26.00
2018-06-08T12:31:04.491Z,26.50
2018-06-08T12:33:32.669Z,26.70
2018-06-08T12:36:00.864Z,26.70
2018-06-08T12:38:29.072Z,27.20
2018-06-08T12:43:25.171Z,27.80
2018-06-08T12:45:53.845Z,27.70
2018-06-08T12:48:22.035Z,27.50
2018-06-08T12:50:50.242Z,27.50
2018-06-08T12:58:14.420Z,27.50
2018-06-08T13:00:42.632Z,27.50
2018-06-08T13:05:38.788Z,28.10
2018-06-08T13:08:06.985Z,28.20
2018-06-08T13:10:36.863Z,28.00
2018-06-08T13:15:33.080Z,28.40
2018-06-08T13:18:01.293Z,28.50
2018-06-08T13:20:29.538Z,28.40
2018-06-08T13:22:57.768Z,28.00
2018-06-08T13:25:25.956Z,28.30
2018-06-08T13:27:54.164Z,28.10
2018-06-08T13:30:22.340Z,28.00
2018-06-08T13:32:50.512Z,28.10
2018-06-08T13:35:18.706Z,27.90
2018-06-08T13:40:14.882Z,27.50
2018-06-08T13:42:43.068Z,27.00
2018-06-08T13:45:11.263Z,27.10
2018-06-08T13:47:39.428Z,27.40
2018-06-08T13:50:07.641Z,27.50
2018-06-08T13:55:03.783Z,28.20
2018-06-08T13:57:32.009Z,28.20
2018-06-08T14:00:00.185Z,28.40
2018-06-08T14:02:28.509Z,28.50
2018-06-08T14:07:24.696Z,28.60
2018-06-08T14:09:52.903Z,28.40
2018-06-08T14:12:21.089Z,27.90
2018-06-08T14:17:17.236Z,27.80
2018-06-08T14:22:13.543Z,28.00
2018-06-08T14:24:41.756Z,27.80
2018-06-08T14:29:37.890Z,27.50
2018-06-08T14:34:34.051Z,27.50
2018-06-08T14:37:02.275Z,27.40
2018-06-08T14:39:30.452Z,27.40
2018-06-08T14:41:58.676Z,27.70
2018-06-08T14:44:26.869Z,27.70
2018-06-08T14:46:55.089Z,27.70
2018-06-08T14:49:23.310Z,27.70
2018-06-08T14:51:51.497Z,27.50
2018-06-08T14:54:19.708Z,27.40
2018-06-08T14:56:47.871Z,27.50
2018-06-08T14:59:16.072Z,27.00
2018-06-08T15:01:44.272Z,26.80
2018-06-08T15:04:12.571Z,26.70
2018-06-08T15:06:40.772Z,26.00
2018-06-08T15:09:08.969Z,26.00
2018-06-08T15:11:37.148Z,25.70
2018-06-08T15:14:05.323Z,25.70
2018-06-08T15:19:01.441Z,25.60
2018-06-08T15:21:29.630Z,25.80
2018-06-08T15:23:57.812Z,25.80
2018-06-08T15:28:53.943Z,25.80
2018-06-08T15:31:22.112Z,25.70
2018-06-08T15:33:50.324Z,25.90
2018-06-08T15:36:18.489Z,25.90
2018-06-08T15:38:46.683Z,25.80
2018-06-08T15:41:14.891Z,25.60
2018-06-08T15:43:43.112Z,25.40
2018-06-08T15:46:11.324Z,25.50
2018-06-08T15:48:39.531Z,25.30
2018-06-08T15:51:07.713Z,25.10
2018-06-08T16:03:27.908Z,24.50
2018-06-08T16:05:56.080Z,24.40
2018-06-08T16:08:24.259Z,24.30
2018-06-08T16:10:52.493Z,24.10
2018-06-08T16:15:48.610Z,24.20
2018-06-08T16:18:16.796Z,24.20
2018-06-08T16:20:44.956Z,24.20
2018-06-08T16:23:13.160Z,24.10
2018-06-08T16:28:09.549Z,23.90
2018-06-08T16:30:37.739Z,24.00
2018-06-08T16:33:05.913Z,23.90
2018-06-08T16:35:34.142Z,23.90
2018-06-08T16:38:02.308Z,23.90
2018-06-08T16:40:30.505Z,23.90
2018-06-08T16:42:58.696Z,23.80
2018-06-08T16:45:26.859Z,23.60
2018-06-08T16:47:55.046Z,23.60
2018-06-08T16:50:23.224Z,23.50
2018-06-08T16:52:51.432Z,23.50
2018-06-08T16:57:47.641Z,23.30
2018-06-08T17:00:16.391Z,23.30
2018-06-08T17:02:44.580Z,23.30
2018-06-08T17:05:12.751Z,23.10
2018-06-08T17:07:40.942Z,23.20
2018-06-08T17:10:09.213Z,23.00
2018-06-08T17:12:37.405Z,23.00
2018-06-08T17:15:05.602Z,22.90
2018-06-08T17:17:33.769Z,23.00
2018-06-08T17:20:01.974Z,22.90
2018-06-08T17:22:30.171Z,22.90
2018-06-08T17:24:58.467Z,22.80
2018-06-08T17:27:26.672Z,22.80
2018-06-08T17:29:54.875Z,22.80
2018-06-08T17:32:23.051Z,22.80
2018-06-08T17:34:51.212Z,22.70
2018-06-08T17:37:19.392Z,22.60
2018-06-08T17:42:15.519Z,22.70
2018-06-08T17:47:11.644Z,22.90
2018-06-08T17:49:39.828Z,22.70
2018-06-08T17:52:07.992Z,22.70
2018-06-08T17:54:36.199Z,22.70
2018-06-08T17:57:04.442Z,22.70
2018-06-08T17:59:32.609Z,22.70
2018-06-08T18:02:00.798Z,22.60
2018-06-08T18:04:28.977Z,22.70
2018-06-08T18:09:25.156Z,22.50
2018-06-08T18:11:53.397Z,22.40
2018-06-08T18:14:21.668Z,22.30
2018-06-08T18:19:21.586Z,22.20
2018-06-08T18:21:49.788Z,22.20
2018-06-08T18:24:17.986Z,22.20
2018-06-08T18:26:46.174Z,22.10
2018-06-08T18:29:14.380Z,22.10
2018-06-08T18:31:42.572Z,22.10
2018-06-08T18:36:38.702Z,21.90
2018-06-08T18:39:08.212Z,21.80
2018-06-08T18:44:05.219Z,21.70
2018-06-08T18:46:33.408Z,21.70
2018-06-08T18:49:01.576Z,21.50
2018-06-08T18:51:29.820Z,21.40
2018-06-08T18:53:57.989Z,21.40
2018-06-08T18:56:26.195Z,21.50
2018-06-08T18:58:54.372Z,21.40
2018-06-08T19:01:22.556Z,21.30
2018-06-08T19:03:50.764Z,21.30
2018-06-08T19:08:46.911Z,21.10
2018-06-08T19:13:43.126Z,21.10
2018-06-08T19:16:11.312Z,20.90
2018-06-08T19:18:39.519Z,20.90
2018-06-08T19:21:07.743Z,20.90
2018-06-08T19:23:35.940Z,21.00
2018-06-08T19:26:04.136Z,21.00
2018-06-08T19:28:32.304Z,20.90
2018-06-08T19:33:28.496Z,20.80
2018-06-08T19:35:56.673Z,20.70
2018-06-08T19:38:24.860Z,20.70
2018-06-08T19:40:53.029Z,20.60
2018-06-08T19:43:21.225Z,20.60
2018-06-08T19:45:49.397Z,20.50
2018-06-08T19:48:17.600Z,20.40
2018-06-08T19:50:46.800Z,20.30
2018-06-08T19:53:15.001Z,20.30
2018-06-08T19:55:43.192Z,20.30
2018-06-08T19:58:11.384Z,20.20
2018-06-08T20:00:39.572Z,20.10
2018-06-08T20:05:35.703Z,20.00
2018-06-08T20:08:03.890Z,20.00
2018-06-08T20:10:32.071Z,20.00
2018-06-08T20:13:00.325Z,20.00
2018-06-08T20:15:28.499Z,20.00
2018-06-08T20:17:56.721Z,20.00
2018-06-08T20:20:24.924Z,20.00
2018-06-08T20:22:53.099Z,19.90
2018-06-08T20:25:21.289Z,19.90
2018-06-08T20:27:49.468Z,19.90
2018-06-08T20:30:17.647Z,19.80
2018-06-08T20:32:45.841Z,19.80
2018-06-08T20:35:14.051Z,19.80
2018-06-08T20:37:42.252Z,19.70
2018-06-08T20:40:10.464Z,19.70
2018-06-08T20:42:38.673Z,19.60
2018-06-08T20:45:06.857Z,19.50
2018-06-08T20:47:35.071Z,19.50
2018-06-08T20:50:03.280Z,19.50
2018-06-08T20:52:31.465Z,19.40
2018-06-08T20:54:59.650Z,19.20
2018-06-08T20:57:28.752Z,19.20
2018-06-08T20:59:56.922Z,19.10
2018-06-08T21:02:25.135Z,19.10
2018-06-08T21:04:53.277Z,19.00
2018-06-08T21:07:21.962Z,19.00
2018-06-08T21:09:50.125Z,19.00
2018-06-08T21:12:18.289Z,18.90
2018-06-08T21:14:46.492Z,19.00
2018-06-08T21:17:14.704Z,19.00
2018-06-08T21:19:42.930Z,19.10
2018-06-08T21:22:11.102Z,19.00
2018-06-08T21:24:39.276Z,19.00
2018-06-08T21:27:07.527Z,19.00
2018-06-08T21:29:35.656Z,19.00
2018-06-08T21:32:03.847Z,18.90
2018-06-08T21:39:27.985Z,18.90
2018-06-08T21:41:56.169Z,18.80
2018-06-08T21:44:24.358Z,18.80
2018-06-08T21:46:52.561Z,18.80
2018-06-08T21:49:20.788Z,18.80
2018-06-08T21:51:48.955Z,18.80
2018-06-08T21:54:17.152Z,18.80
2018-06-08T21:56:45.318Z,18.70
2018-06-08T21:59:13.512Z,18.60
2018-06-08T22:01:41.718Z,18.60
2018-06-08T22:04:09.904Z,18.70
2018-06-08T22:06:38.100Z,18.70
2018-06-08T22:09:06.967Z,18.60
2018-06-08T22:11:35.216Z,18.60
2018-06-08T22:14:03.594Z,18.60
2018-06-08T22:16:32.010Z,18.60
2018-06-08T22:19:00.177Z,18.60
2018-06-08T22:21:28.368Z,18.60
2018-06-08T22:23:56.543Z,18.50
2018-06-08T22:26:24.716Z,18.60
2018-06-08T22:28:52.896Z,18.60
2018-06-08T22:31:21.063Z,18.60
2018-06-08T22:33:49.251Z,18.60
2018-06-08T22:36:17.423Z,18.50
2018-06-08T22:38:45.583Z,18.50
2018-06-08T22:41:13.804Z,18.60
2018-06-08T22:43:41.989Z,18.50
2018-06-08T22:46:10.159Z,18.50
2018-06-08T22:48:38.320Z,18.50
2018-06-08T22:51:06.492Z,18.50
2018-06-08T22:53:34.672Z,18.50
2018-06-08T22:56:02.840Z,18.60
2018-06-08T22:58:37.439Z,18.60
2018-06-08T23:01:05.632Z,18.50
2018-06-08T23:03:33.824Z,18.50
2018-06-08T23:06:02.042Z,18.50
2018-06-08T23:08:30.216Z,18.50
2018-06-08T23:10:58.404Z,18.50
2018-06-08T23:13:26.595Z,18.50
2018-06-08T23:15:54.792Z,18.50
2018-06-08T23:18:22.998Z,18.40
2018-06-08T23:20:51.160Z,18.40
2018-06-08T23:23:19.333Z,18.40
2018-06-08T23:25:47.517Z,18.30
2018-06-08T23:28:15.740Z,18.30
2018-06-08T23:30:43.923Z,18.30
2018-06-08T23:33:12.105Z,18.30
2018-06-08T23:35:40.425Z,18.30
2018-06-08T23:38:08.617Z,18.30
2018-06-08T23:40:36.780Z,18.30
2018-06-08T23:43:05.068Z,18.30
2018-06-08T23:45:33.229Z,18.30
2018-06-08T23:48:01.407Z,18.30
2018-06-08T23:50:29.573Z,18.30
2018-06-08T23:52:57.754Z,18.30
2018-06-08T23:55:25.940Z,18.20
2018-06-08T23:57:54.107Z,18.30
